Time;durP1;ratioP1;P1;durP2;ratioP2;P2;SDS_P1;SDS_P2;PMS_P1;PMS_P2;Temp;Humidity;BMP_temperature;BMP_pressure;BME280_temperature;BME280_humidity;BME280_pressure;Samples;Min_cycle;Max_cycle;Signal;HPM_P1;HPM_P2
2023/03/01 00:01:28;;;;;;;248.00;38.53;;;5.60;99.90;;;;;;5136655;27;20547;-48
2023/03/01 00:03:54;;;;;;;274.95;40.97;;;5.50;99.90;;;;;;5136848;27;20031;-50
2023/03/01 00:06:21;;;;;;;249.27;40.45;;;5.50;99.90;;;;;;5136936;27;20104;-51
2023/03/01 00:08:49;;;;;;;192.80;37.42;;;5.50;99.90;;;;;;5100283;27;20046;-48
2023/03/01 00:11:26;;;;;;;224.38;39.67;;;5.40;99.90;;;;;;5136833;27;20031;-51
2023/03/01 00:13:54;;;;;;;176.07;37.63;;;5.50;99.90;;;;;;5136382;27;20031;-50
2023/03/01 00:16:27;;;;;;;255.30;40.80;;;5.50;99.90;;;;;;5136684;27;20023;-48
2023/03/01 00:18:53;;;;;;;;;;;5.50;99.90;;;;;;5136858;27;20467;-50
2023/03/01 00:21:21;;;;;;;236.40;37.35;;;5.50;99.90;;;;;;5136672;27;19904;-51
2023/03/01 00:23:48;;;;;;;151.30;34.72;;;5.70;99.90;;;;;;5136474;27;20385;-51
2023/03/01 00:26:15;;;;;;;216.38;38.08;;;5.70;99.90;;;;;;5117647;27;20126;-50
2023/03/01 00:28:41;;;;;;;208.70;35.88;;;5.70;99.90;;;;;;5116972;27;20057;-49
2023/03/01 00:31:10;;;;;;;221.10;37.83;;;5.70;99.90;;;;;;5136385;27;20381;-49
2023/03/01 00:33:36;;;;;;;259.65;39.38;;;5.70;99.90;;;;;;5136000;27;20031;-51
2023/03/01 00:36:02;;;;;;;142.32;35.83;;;5.50;99.90;;;;;;5136351;27;20030;-49
2023/03/01 00:38:28;;;;;;;213.18;37.35;;;5.50;99.90;;;;;;5066419;27;20031;-51
2023/03/01 00:40:55;;;;;;;224.15;38.63;;;;;;;;;;5136178;27;20432;-48
2023/03/01 00:43:20;;;;;;;123.35;35.55;;;5.70;99.90;;;;;;5136078;27;20076;-51
2023/03/01 00:45:46;;;;;;;242.60;39.97;;;5.80;99.90;;;;;;5135914;27;20114;-49
2023/03/01 00:48:12;;;;;;;228.73;36.42;;;5.90;99.90;;;;;;5135618;27;20030;-50
2023/03/01 00:50:38;;;;;;;217.15;39.88;;;5.90;99.90;;;;;;5135260;27;20148;-49
2023/03/01 00:53:04;;;;;;;244.52;39.72;;;6.10;99.90;;;;;;5135950;27;20026;-50
2023/03/01 00:55:31;;;;;;;221.23;38.92;;;6.10;99.90;;;;;;5135864;27;20031;-51
2023/03/01 00:57:56;;;;;;;151.63;37.00;;;6.10;99.90;;;;;;5135686;27;20031;-51
2023/03/01 01:00:22;;;;;;;235.93;39.47;;;6.10;99.90;;;;;;5116517;27;20039;-51
2023/03/01 01:02:48;;;;;;;170.15;37.75;;;6.00;99.90;;;;;;5116483;27;20054;-51
2023/03/01 01:05:14;;;;;;;229.57;40.22;;;5.90;99.90;;;;;;5135610;27;20038;-49
2023/03/01 01:07:40;;;;;;;213.93;37.40;;;5.90;99.90;;;;;;5135700;27;20038;-49
2023/03/01 01:10:07;;;;;;;195.70;37.53;;;5.90;99.90;;;;;;5135753;27;20023;-51
2023/03/01 01:12:33;;;;;;;183.60;37.53;;;5.80;99.90;;;;;;5065746;27;20043;-50
2023/03/01 01:14:59;;;;;;;147.15;34.53;;;;;;;;;;5116616;27;20443;-49
2023/03/01 01:17:25;;;;;;;275.17;39.88;;;6.00;99.90;;;;;;5135457;27;20034;-51
2023/03/01 01:19:50;;;;;;;209.65;37.67;;;6.00;99.90;;;;;;5082508;27;20043;-49
2023/03/01 01:22:16;;;;;;;166.55;36.45;;;6.00;99.90;;;;;;5135180;27;20031;-51
2023/03/01 01:24:42;;;;;;;240.00;39.88;;;6.00;99.90;;;;;;5116214;27;20043;-49
2023/03/01 01:27:07;;;;;;;176.95;35.17;;;6.10;99.90;;;;;;5116222;27;20049;-52
2023/03/01 01:29:33;;;;;;;221.55;38.35;;;6.10;99.90;;;;;;5135361;27;20108;-49
2023/03/01 01:31:59;;;;;;;198.25;36.40;;;6.10;99.90;;;;;;5135085;27;20031;-51
2023/03/01 01:34:25;;;;;;;178.20;38.20;;;6.10;99.90;;;;;;5135341;27;20035;-51
2023/03/01 01:36:55;;;;;;;227.70;37.63;;;6.10;99.90;;;;;;5135243;27;20031;-49
2023/03/01 01:39:22;;;;;;;150.57;37.13;;;6.10;99.90;;;;;;5135100;27;20023;-50
2023/03/01 01:41:48;;;;;;;177.45;36.55;;;6.20;99.90;;;;;;5135397;27;20370;-50
2023/03/01 01:44:27;;;;;;;105.05;32.08;;;6.10;99.90;;;;;;5135270;27;20043;-49
2023/03/01 01:47:12;;;;;;;144.57;34.83;;;6.10;99.90;;;;;;5134814;27;20023;-50
2023/03/01 01:49:43;;;;;;;141.52;35.20;;;6.00;99.90;;;;;;5116140;27;20036;-51
2023/03/01 01:52:16;;;;;;;188.80;37.10;;;6.10;99.90;;;;;;5136474;27;20478;-51
2023/03/01 01:55:04;;;;;;;211.88;36.40;;;6.00;99.90;;;;;;5136590;27;20062;-50
2023/03/01 01:57:53;;;;;;;225.55;37.78;;;5.90;99.90;;;;;;5117667;27;20071;-53
2023/03/01 02:00:28;;;;;;;187.55;33.83;;;6.00;99.90;;;;;;5083181;27;20039;-49
2023/03/01 02:03:06;;;;;;;128.55;33.03;;;6.00;99.90;;;;;;5136948;27;20023;-51
2023/03/01 02:05:53;;;;;;;153.05;34.72;;;5.80;99.90;;;;;;5118768;27;20065;-51
2023/03/01 02:08:21;;;;;;;170.45;34.38;;;5.80;99.90;;;;;;5135581;27;20027;-49
2023/03/01 02:10:49;;;;;;;189.30;40.05;;;5.80;99.90;;;;;;5134147;27;20048;-50
2023/03/01 02:13:15;;;;;;;180.93;36.30;;;5.80;99.90;;;;;;5118027;27;20049;-49
2023/03/01 02:15:43;;;;;;;89.63;32.00;;;5.90;99.90;;;;;;5113529;28;20119;-51
2023/03/01 02:18:12;;;;;;;127.72;34.78;;;5.80;99.90;;;;;;5113738;28;20077;-51
2023/03/01 02:20:59;;;;;;;118.78;31.88;;;5.60;99.90;;;;;;5113659;28;20028;-49
2023/03/01 02:23:25;;;;;;;72.63;29.58;;;5.70;99.90;;;;;;5111945;28;20562;-49
2023/03/01 02:26:16;;;;;;;85.93;30.65;;;5.70;99.90;;;;;;5113632;28;20036;-50
2023/03/01 02:28:43;;;;;;;117.72;31.23;;;5.60;99.90;;;;;;5113802;28;20032;-50
2023/03/01 02:33:58;;;;;;;133.93;31.33;;;5.80;99.90;;;;;;5113864;28;20436;-51
2023/03/01 02:36:28;;;;;;;105.03;28.85;;;5.70;99.90;;;;;;5111718;28;20048;-48
2023/03/01 02:38:57;;;;;;;150.85;32.60;;;;;;;;;;5113559;28;20455;-49
2023/03/01 02:41:25;;;;;;;123.50;31.45;;;;;;;;;;5113360;28;20067;-48
2023/03/01 02:43:51;;;;;;;116.75;30.13;;;;;;;;;;5113424;28;20031;-51
2023/03/01 02:46:19;;;;;;;87.35;28.92;;;;;;;;;;5111802;28;20047;-50
2023/03/01 02:48:49;;;;;;;82.88;31.20;;;6.00;99.90;;;;;;5113748;28;20042;-49
2023/03/01 02:51:24;;;;;;;98.13;29.05;;;6.20;99.90;;;;;;5113359;28;20425;-48
2023/03/01 02:54:20;;;;;;;72.40;27.73;;;6.10;99.90;;;;;;5113511;28;20024;-49
2023/03/01 02:56:49;;;;;;;68.60;27.75;;;6.10;99.90;;;;;;5111572;28;20126;-49
2023/03/01 02:59:21;;;;;;;88.60;27.92;;;5.90;99.90;;;;;;5113640;28;20558;-51
2023/03/01 03:01:47;;;;;;;58.97;26.92;;;5.90;99.90;;;;;;5112877;28;20061;-51
2023/03/01 03:04:20;;;;;;;52.92;27.15;;;5.90;99.90;;;;;;5113281;28;20044;-50
2023/03/01 03:06:48;;;;;;;78.45;29.25;;;5.90;99.90;;;;;;5113811;28;20129;-50
2023/03/01 03:09:15;;;;;;;70.45;28.92;;;5.90;99.90;;;;;;5113137;28;20051;-49
2023/03/01 03:11:42;;;;;;;87.13;26.95;;;5.90;99.90;;;;;;5113607;28;20048;-48
2023/03/01 03:14:13;;;;;;;92.68;28.60;;;5.90;99.90;;;;;;5117324;28;20067;-49
2023/03/01 03:16:43;;;;;;;80.60;27.50;;;5.90;99.90;;;;;;5117393;28;20039;-51
2023/03/01 03:19:09;;;;;;;63.08;26.42;;;5.80;99.90;;;;;;5117091;28;20490;-51
2023/03/01 03:21:35;;;;;;;84.60;27.02;;;5.80;99.90;;;;;;5117473;27;20036;-49
2023/03/01 03:24:01;;;;;;;66.75;27.13;;;6.00;99.90;;;;;;5137780;27;20394;-49
2023/03/01 03:26:27;;;;;;;95.50;28.42;;;6.00;99.90;;;;;;5135753;27;20139;-51
2023/03/01 03:28:53;;;;;;;55.13;25.17;;;5.70;99.90;;;;;;5135821;27;20407;-51
2023/03/01 03:31:19;;;;;;;72.65;26.67;;;5.80;99.90;;;;;;5137669;27;20031;-50
2023/03/01 03:33:44;;;;;;;52.45;25.08;;;5.90;99.90;;;;;;5137546;27;20107;-49
2023/03/01 03:36:17;;;;;;;47.38;23.13;;;;;;;;;;5137484;27;20489;-50
2023/03/01 03:38:44;;;;;;;55.60;25.98;;;5.90;99.90;;;;;;5137134;27;20466;-50
2023/03/01 03:41:10;;;;;;;64.40;26.25;;;5.50;99.90;;;;;;5137561;27;20035;-49
2023/03/01 03:43:38;;;;;;;78.22;27.00;;;5.50;99.90;;;;;;5137168;27;20394;-50
2023/03/01 03:46:07;;;;;;;51.60;24.90;;;5.50;99.90;;;;;;5137539;27;20027;-51
2023/03/01 03:48:43;;;;;;;68.00;26.50;;;5.60;99.90;;;;;;5137226;27;20510;-50
2023/03/01 03:51:17;;;;;;;54.50;22.45;;;5.60;99.90;;;;;;5137308;27;20039;-51
2023/03/01 03:53:43;;;;;;;61.92;26.52;;;5.50;99.90;;;;;;5137565;27;20037;-51
2023/03/01 03:56:09;;;;;;;59.80;25.95;;;5.50;99.90;;;;;;5135406;27;20053;-49
2023/03/01 03:58:35;;;;;;;55.33;24.95;;;5.60;99.90;;;;;;5083876;27;20122;-49
2023/03/01 04:01:01;;;;;;;55.78;23.55;;;5.60;99.90;;;;;;5137243;27;20122;-51
2023/03/01 04:03:28;;;;;;;61.28;24.80;;;5.60;99.90;;;;;;5136741;27;20027;-48
2023/03/01 04:05:56;;;;;;;51.13;23.23;;;5.60;99.90;;;;;;5136964;27;20103;-50
2023/03/01 04:08:23;;;;;;;45.13;23.58;;;;;;;;;;5136976;27;20508;-51
2023/03/01 04:10:51;;;;;;;47.97;22.77;;;;;;;;;;5137148;27;20423;-50
2023/03/01 04:13:19;;;;;;;45.55;23.80;;;;;;;;;;5136753;27;20119;-49
2023/03/01 04:15:45;;;;;;;45.20;22.38;;;;;;;;;;5136703;27;20038;-49
2023/03/01 04:18:15;;;;;;;37.97;21.30;;;5.90;99.90;;;;;;5136786;27;20042;-50
2023/03/01 04:20:42;;;;;;;38.50;20.63;;;5.90;99.90;;;;;;5136843;27;20105;-48
2023/03/01 04:23:13;;;;;;;36.70;20.98;;;5.80;99.90;;;;;;5136606;27;20031;-50
2023/03/01 04:25:55;;;;;;;48.88;23.27;;;5.80;99.90;;;;;;5136477;27;20050;-49
2023/03/01 04:28:23;;;;;;;40.75;21.70;;;5.70;99.90;;;;;;5136603;27;20027;-49
2023/03/01 04:30:49;;;;;;;38.38;22.08;;;5.70;99.90;;;;;;5136407;27;20031;-49
2023/03/01 04:33:15;;;;;;;46.70;21.52;;;5.60;99.90;;;;;;5137276;27;20062;-49
2023/03/01 04:35:41;;;;;;;38.65;20.20;;;5.50;99.90;;;;;;5137144;27;20078;-51
2023/03/01 04:38:07;;;;;;;35.47;19.27;;;5.60;99.90;;;;;;5136950;27;20501;-50
2023/03/01 04:40:33;;;;;;;37.45;21.00;;;5.70;99.90;;;;;;5136914;27;20030;-50
2023/03/01 04:42:59;;;;;;;34.17;18.58;;;5.80;99.90;;;;;;5137571;27;20087;-49
2023/03/01 04:45:25;;;;;;;38.95;20.30;;;5.30;99.90;;;;;;5067744;27;20114;-51
2023/03/01 04:47:52;;;;;;;36.13;20.15;;;6.00;99.90;;;;;;5137142;27;20446;-51
2023/03/01 04:50:23;;;;;;;35.00;20.17;;;6.10;99.90;;;;;;5117158;27;20043;-49
2023/03/01 04:52:49;;;;;;;32.57;18.33;;;6.00;99.90;;;;;;5115460;28;20092;-51
2023/03/01 04:55:15;;;;;;;28.55;18.25;;;6.00;99.90;;;;;;5113471;28;20264;-51
2023/03/01 04:57:41;;;;;;;36.40;19.30;;;6.10;99.90;;;;;;5115319;28;20027;-50
2023/03/01 05:00:21;;;;;;;32.30;19.70;;;6.00;99.90;;;;;;5114982;28;20038;-49
2023/03/01 05:02:48;;;;;;;33.05;18.90;;;6.00;99.90;;;;;;5071281;28;20051;-49
2023/03/01 05:05:14;;;;;;;32.88;19.95;;;5.90;99.90;;;;;;5071922;28;20484;-51
2023/03/01 05:07:40;;;;;;;33.88;19.63;;;5.90;99.90;;;;;;5055559;28;20041;-51
2023/03/01 05:10:06;;;;;;;32.35;19.13;;;6.00;99.90;;;;;;5072181;28;20028;-52
2023/03/01 05:12:32;;;;;;;33.95;19.05;;;6.10;99.90;;;;;;5022207;28;20052;-51
2023/03/01 05:14:58;;;;;;;28.35;18.52;;;6.10;99.90;;;;;;5072048;28;20391;-49
2023/03/01 05:17:24;;;;;;;31.98;20.48;;;6.10;99.90;;;;;;5055062;28;20052;-53
2023/03/01 05:19:50;;;;;;;28.27;17.45;;;6.20;99.90;;;;;;5072050;28;20044;-49
2023/03/01 05:22:16;;;;;;;31.48;18.38;;;6.20;99.90;;;;;;5071197;28;20131;-51
2023/03/01 05:24:42;;;;;;;35.22;22.17;;;6.30;99.90;;;;;;5071651;28;20175;-50
2023/03/01 05:27:07;;;;;;;34.38;20.38;;;6.30;99.90;;;;;;5071581;28;20549;-51
2023/03/01 05:29:34;;;;;;;31.85;20.73;;;6.20;99.90;;;;;;5071487;28;20481;-50
2023/03/01 05:32:02;;;;;;;29.52;19.73;;;6.30;99.90;;;;;;5071162;28;20038;-51
2023/03/01 05:34:32;;;;;;;31.42;19.10;;;6.30;99.90;;;;;;5127517;27;20092;-49
2023/03/01 05:36:59;;;;;;;31.27;19.45;;;6.30;99.90;;;;;;5134927;27;20038;-49
2023/03/01 05:39:26;;;;;;;26.25;17.67;;;6.40;99.90;;;;;;5135054;27;20467;-49
2023/03/01 05:41:54;;;;;;;31.02;18.77;;;6.30;99.90;;;;;;5132509;27;20118;-49
2023/03/01 05:44:20;;;;;;;26.95;17.90;;;6.20;99.90;;;;;;5134310;27;20039;-50
2023/03/01 05:46:47;;;;;;;27.63;19.10;;;6.20;99.90;;;;;;5133522;27;20081;-51
2023/03/01 05:49:13;;;;;;;27.38;18.10;;;6.20;99.90;;;;;;5133405;27;20106;-51
2023/03/01 05:51:46;;;;;;;27.85;18.60;;;6.20;99.90;;;;;;5110840;28;20092;-49
2023/03/01 05:54:12;;;;;;;27.00;18.30;;;6.30;99.90;;;;;;5109297;28;20461;-49
2023/03/01 05:56:38;;;;;;;26.75;18.15;;;6.20;99.90;;;;;;5077435;28;20169;-52
2023/03/01 05:59:07;;;;;;;31.75;18.55;;;6.30;99.90;;;;;;5111144;28;20120;-50
2023/03/01 06:01:33;;;;;;;28.77;17.85;;;6.10;99.90;;;;;;5111080;28;20524;-49
2023/03/01 06:03:59;;;;;;;35.10;19.88;;;6.00;99.90;;;;;;5111080;28;20043;-50
2023/03/01 06:06:25;;;;;;;31.75;19.70;;;6.10;99.90;;;;;;5076837;28;20047;-51
2023/03/01 06:08:52;;;;;;;33.13;20.88;;;6.10;99.90;;;;;;5110947;28;20034;-49
2023/03/01 06:11:18;;;;;;;28.40;19.58;;;6.20;99.90;;;;;;5094656;28;20042;-51
2023/03/01 06:13:44;;;;;;;30.65;19.42;;;6.30;99.90;;;;;;5043973;28;20024;-53
2023/03/01 06:16:10;;;;;;;27.75;19.35;;;6.30;99.90;;;;;;5108404;28;20036;-49
2023/03/01 06:18:37;;;;;;;31.73;19.92;;;6.30;99.90;;;;;;5105691;28;20144;-49
2023/03/01 06:21:04;;;;;;;38.65;23.00;;;6.40;99.90;;;;;;5101627;28;20028;-51
2023/03/01 06:23:31;;;;;;;33.97;19.15;;;6.40;99.90;;;;;;5107138;27;20172;-53
2023/03/01 06:25:57;;;;;;;30.42;19.02;;;6.40;99.90;;;;;;5128875;27;20052;-51
2023/03/01 06:28:23;;;;;;;36.05;26.83;;;6.40;99.90;;;;;;5133648;27;20427;-48
2023/03/01 06:30:50;;;;;;;82.85;42.67;;;6.40;99.90;;;;;;5125574;27;20424;-50
2023/03/01 06:33:16;;;;;;;56.00;34.63;;;6.40;99.90;;;;;;5113575;28;20050;-48
2023/03/01 06:35:41;;;;;;;68.95;43.22;;;6.40;99.90;;;;;;5099255;28;20032;-48
2023/03/01 06:38:07;;;;;;;58.85;35.00;;;6.40;99.90;;;;;;5080850;28;20046;-49
2023/03/01 06:40:35;;;;;;;45.72;29.27;;;6.30;99.90;;;;;;5133423;27;20027;-49
2023/03/01 06:43:01;;;;;;;41.90;28.38;;;6.40;99.90;;;;;;5133726;28;20035;-50
2023/03/01 06:45:27;;;;;;;60.47;40.28;;;6.50;99.90;;;;;;5133882;28;20050;-49
2023/03/01 06:47:52;;;;;;;33.90;23.25;;;6.40;99.90;;;;;;5136231;27;20023;-50
2023/03/01 06:50:18;;;;;;;37.00;25.63;;;6.40;99.90;;;;;;5138401;27;20489;-48
2023/03/01 06:52:45;;;;;;;42.33;26.80;;;6.40;99.90;;;;;;5138371;27;20063;-48
2023/03/01 06:55:12;;;;;;;51.63;28.52;;;6.40;99.90;;;;;;5138199;27;20037;-48
2023/03/01 06:57:38;;;;;;;43.78;25.40;;;6.50;99.90;;;;;;5094970;28;20043;-50
2023/03/01 07:00:05;;;;;;;59.00;32.67;;;6.40;99.90;;;;;;5043882;28;20031;-50
2023/03/01 07:02:31;;;;;;;55.55;32.67;;;6.20;99.90;;;;;;5060205;28;20046;-49
2023/03/01 07:04:57;;;;;;;35.13;22.85;;;6.40;99.90;;;;;;5094375;28;20512;-48
2023/03/01 07:07:23;;;;;;;64.70;37.47;;;6.30;99.90;;;;;;5096537;28;20539;-49
2023/03/01 07:09:49;;;;;;;34.03;24.05;;;6.30;99.90;;;;;;5088326;28;20040;-48
2023/03/01 07:12:15;;;;;;;32.42;22.27;;;6.20;99.90;;;;;;5075025;28;20126;-49
2023/03/01 07:14:41;;;;;;;42.78;25.45;;;6.20;99.90;;;;;;5076098;28;20033;-47
2023/03/01 07:17:07;;;;;;;33.70;21.08;;;6.10;99.90;;;;;;5077245;28;20087;-49
2023/03/01 07:19:33;;;;;;;41.88;27.08;;;6.20;99.90;;;;;;5076955;28;20133;-50
2023/03/01 07:21:59;;;;;;;45.90;32.28;;;6.30;99.90;;;;;;5073340;28;20499;-48
2023/03/01 07:24:24;;;;;;;43.33;24.13;;;6.20;99.90;;;;;;5056009;28;20489;-48
2023/03/01 07:26:51;;;;;;;66.32;35.28;;;6.30;99.90;;;;;;5039453;28;20041;-47
2023/03/01 07:29:17;;;;;;;50.83;30.02;;;6.40;99.90;;;;;;5106293;28;20123;-49
2023/03/01 07:31:43;;;;;;;59.30;36.08;;;6.20;99.90;;;;;;5115928;28;20031;-48
2023/03/01 07:34:10;;;;;;;49.08;30.63;;;6.20;99.90;;;;;;5115913;28;20042;-50
2023/03/01 07:36:36;;;;;;;47.90;28.27;;;6.30;99.90;;;;;;5096585;28;20105;-48
2023/03/01 07:39:03;;;;;;;51.30;29.90;;;6.50;99.90;;;;;;5116034;28;20092;-47
2023/03/01 07:41:29;;;;;;;46.78;26.88;;;6.20;99.90;;;;;;5115625;28;20042;-48
2023/03/01 07:43:55;;;;;;;43.03;25.85;;;6.30;99.90;;;;;;5096498;28;20073;-49
2023/03/01 07:46:21;;;;;;;42.58;26.10;;;6.10;99.90;;;;;;5123556;27;20031;-49
2023/03/01 07:48:47;;;;;;;42.03;23.60;;;6.10;99.90;;;;;;5135414;27;20027;-49
2023/03/01 07:51:13;;;;;;;40.50;22.13;;;6.20;99.90;;;;;;5115401;27;20104;-54
2023/03/01 07:53:39;;;;;;;38.40;21.38;;;5.80;99.90;;;;;;5127109;27;20045;-50
2023/03/01 07:56:06;;;;;;;37.47;21.10;;;5.70;99.90;;;;;;5125591;27;20035;-51
2023/03/01 07:58:35;;;;;;;40.30;22.08;;;5.70;99.90;;;;;;5114817;27;20027;-52
2023/03/01 08:01:05;;;;;;;42.35;23.88;;;6.00;99.90;;;;;;5135703;27;20054;-50
2023/03/01 08:03:31;;;;;;;44.33;24.48;;;6.30;99.90;;;;;;5132698;27;20023;-49
2023/03/01 08:06:00;;;;;;;39.08;22.13;;;6.30;99.90;;;;;;5135208;27;20030;-49
2023/03/01 08:08:26;;;;;;;39.22;21.00;;;6.50;99.90;;;;;;5135458;27;20526;-50
2023/03/01 08:10:52;;;;;;;34.70;20.83;;;6.50;99.90;;;;;;5133565;27;20114;-49
2023/03/01 08:13:22;;;;;;;50.58;23.15;;;6.70;99.90;;;;;;5135786;27;20065;-50
2023/03/01 08:15:49;;;;;;;38.45;20.27;;;6.60;99.90;;;;;;5135026;27;20031;-49
2023/03/01 08:18:19;;;;;;;40.90;21.50;;;6.70;99.90;;;;;;5135534;27;20026;-48
2023/03/01 08:20:45;;;;;;;43.60;21.67;;;;;;;;;;5135482;27;20024;-49
2023/03/01 08:23:11;;;;;;;60.83;24.50;;;6.90;99.90;;;;;;5115636;27;20084;-49
2023/03/01 08:25:37;;;;;;;47.50;24.90;;;;;;;;;;5133428;27;20035;-54
2023/03/01 08:28:03;;;;;;;41.95;22.52;;;6.90;99.90;;;;;;5134762;27;20118;-53
2023/03/01 08:30:29;;;;;;;55.38;23.38;;;;;;;;;;5134782;27;20106;-51
2023/03/01 08:32:55;;;;;;;50.05;23.58;;;7.10;99.90;;;;;;5115361;27;20092;-52
2023/03/01 08:35:21;;;;;;;48.63;22.00;;;7.10;99.90;;;;;;5134882;27;20027;-48
2023/03/01 08:37:47;;;;;;;48.10;21.70;;;7.20;99.90;;;;;;5134706;27;20030;-50
2023/03/01 08:40:13;;;;;;;60.42;22.48;;;7.30;99.90;;;;;;5134409;27;20039;-53
2023/03/01 08:42:42;;;;;;;59.75;23.33;;;7.20;99.90;;;;;;5134638;27;20116;-56
2023/03/01 08:45:09;;;;;;;66.78;24.63;;;7.10;99.90;;;;;;5134619;27;20046;-52
2023/03/01 08:47:36;;;;;;;84.22;24.42;;;7.10;99.90;;;;;;5108775;27;20027;-52
2023/03/01 08:50:02;;;;;;;61.78;30.15;;;7.00;99.90;;;;;;5134554;27;20401;-50
2023/03/01 08:52:28;;;;;;;57.00;25.15;;;7.10;99.90;;;;;;5134378;27;20035;-54
2023/03/01 08:54:54;;;;;;;65.18;27.63;;;7.10;99.90;;;;;;5134208;27;20470;-52
2023/03/01 08:57:20;;;;;;;52.42;22.75;;;7.20;99.90;;;;;;5115004;27;20046;-52
2023/03/01 08:59:45;;;;;;;44.90;26.02;;;7.20;99.90;;;;;;5134497;27;20046;-56
2023/03/01 09:02:16;;;;;;;49.22;23.13;;;7.20;99.90;;;;;;5097327;27;20055;-50
2023/03/01 09:04:43;;;;;;;59.75;26.17;;;7.10;99.90;;;;;;5133733;27;20110;-50
2023/03/01 09:07:09;;;;;;;60.38;26.20;;;7.00;99.90;;;;;;5131491;27;20023;-50
2023/03/01 09:09:36;;;;;;;63.65;27.42;;;7.00;99.90;;;;;;5133330;27;20028;-49
2023/03/01 09:12:02;;;;;;;77.53;27.45;;;7.00;99.90;;;;;;5073455;28;20097;-50
2023/03/01 09:14:28;;;;;;;57.38;30.30;;;7.10;99.90;;;;;;5090564;28;20078;-53
2023/03/01 09:16:54;;;;;;;82.00;28.65;;;7.10;99.90;;;;;;5091216;28;20043;-51
2023/03/01 09:19:20;;;;;;;79.55;30.42;;;7.10;99.90;;;;;;5091289;28;20041;-50
2023/03/01 09:21:52;;;;;;;69.93;26.48;;;7.20;99.90;;;;;;5090835;28;20092;-51
2023/03/01 09:24:22;;;;;;;56.47;26.95;;;7.20;99.90;;;;;;5090099;28;20566;-51
2023/03/01 09:26:49;;;;;;;69.75;36.35;;;7.30;99.90;;;;;;5086901;28;20165;-50
2023/03/01 09:29:16;;;;;;;60.05;24.55;;;7.40;99.90;;;;;;5090384;28;20427;-49
2023/03/01 09:31:42;;;;;;;67.45;31.63;;;7.40;99.90;;;;;;5089870;28;20028;-49
2023/03/01 09:34:08;;;;;;;62.70;27.75;;;7.30;99.90;;;;;;5090809;28;20111;-49
2023/03/01 09:36:35;;;;;;;260.35;166.98;;;7.20;99.90;;;;;;5090761;28;20090;-50
2023/03/01 09:39:01;;;;;;;381.23;257.52;;;7.20;99.90;;;;;;5091042;28;20416;-49
2023/03/01 09:41:47;;;;;;;72.30;34.60;;;7.20;99.90;;;;;;5089991;28;20040;-50
2023/03/01 09:44:51;;;;;;;63.60;29.80;;;7.20;99.90;;;;;;5088199;28;20495;-64
2023/03/01 09:47:32;;;;;;;83.80;37.53;;;7.10;99.90;;;;;;5088080;28;20062;-62
2023/03/01 09:50:02;;;;;;;165.90;92.22;;;7.20;99.90;;;;;;5097990;28;20039;-55
2023/03/01 09:52:42;;;;;;;66.47;30.95;;;7.20;99.90;;;;;;5067699;28;20040;-54
2023/03/01 09:55:14;;;;;;;116.40;63.38;;;7.10;99.90;;;;;;5111839;28;20031;-56
2023/03/01 09:57:48;;;;;;;68.97;33.17;;;7.40;99.90;;;;;;5111519;28;20080;-54
2023/03/01 10:00:23;;;;;;;77.20;34.20;;;7.30;99.90;;;;;;5111813;28;20063;-53
2023/03/01 10:02:52;;;;;;;76.25;35.03;;;7.70;99.90;;;;;;5110579;28;20043;-53
2023/03/01 10:05:27;;;;;;;74.07;34.90;;;7.70;99.90;;;;;;5110581;28;20043;-53
2023/03/01 10:08:03;;;;;;;77.30;35.55;;;8.10;99.90;;;;;;5110573;28;20035;-53
2023/03/01 10:10:32;;;;;;;74.55;37.88;;;;;;;;;;5076544;28;20541;-53
2023/03/01 10:13:10;;;;;;;75.47;37.40;;;8.50;99.90;;;;;;5112125;28;20514;-53
2023/03/01 10:15:39;;;;;;;83.35;41.65;;;;;;;;;;5112726;28;20024;-53
2023/03/01 10:18:12;;;;;;;97.00;43.15;;;9.00;99.90;;;;;;5113025;28;20035;-53
2023/03/01 10:20:38;;;;;;;97.43;45.72;;;;;;;;;;5112461;27;20142;-53
2023/03/01 10:23:04;;;;;;;100.85;50.72;;;8.90;99.90;;;;;;5112626;28;20055;-53
2023/03/01 10:25:36;;;;;;;102.85;47.95;;;8.70;99.90;;;;;;5111343;28;20032;-53
2023/03/01 10:28:11;;;;;;;94.90;50.25;;;8.70;99.90;;;;;;5112651;28;20076;-53
2023/03/01 10:30:43;;;;;;;99.25;52.53;;;;;;;;;;5093451;28;20036;-53
2023/03/01 10:33:31;;;;;;;86.38;44.10;;;9.40;99.90;;;;;;5112725;28;20020;-53
2023/03/01 10:35:57;;;;;;;83.43;41.35;;;9.30;99.90;;;;;;5110191;28;20031;-53
2023/03/01 10:38:24;;;;;;;88.35;43.03;;;8.90;99.90;;;;;;5110246;28;20036;-53
2023/03/01 10:40:58;;;;;;;90.70;42.03;;;8.70;99.90;;;;;;5075846;28;20063;-53
2023/03/01 10:43:31;;;;;;;93.43;43.22;;;;;;;;;;5110081;28;20437;-53
2023/03/01 10:45:57;;;;;;;85.95;42.95;;;8.40;99.90;;;;;;5093066;28;20088;-52
2023/03/01 10:48:26;;;;;;;89.65;42.85;;;7.90;99.90;;;;;;5076350;28;20031;-53
2023/03/01 10:51:06;;;;;;;76.82;38.33;;;8.00;99.90;;;;;;5109940;28;20546;-52
2023/03/01 10:53:36;;;;;;;87.00;40.22;;;7.90;99.90;;;;;;5109937;28;20040;-52
2023/03/01 10:56:06;;;;;;;73.93;34.80;;;;;;;;;;5110083;28;20534;-53
2023/03/01 10:58:34;;;;;;;81.38;39.75;;;;;;;;;;5076289;28;20032;-53
2023/03/01 11:01:03;;;;;;;66.30;35.60;;;;;;;;;;5109849;28;20048;-53
2023/03/01 11:03:36;;;;;;;78.00;35.88;;;;;;;;;;5092684;28;20101;-52
2023/03/01 11:06:08;;;;;;;96.38;46.63;;;;;;;;;;5109940;28;20142;-52
2023/03/01 11:08:40;;;;;;;79.80;40.58;;;;;;;;;;5109944;28;20446;-53
2023/03/01 11:11:11;;;;;;;82.05;40.97;;;8.90;99.90;;;;;;5110080;28;20028;-52
2023/03/01 11:13:49;;;;;;;81.80;40.95;;;8.70;99.90;;;;;;5111695;28;20031;-52
2023/03/01 11:16:22;;;;;;;74.38;37.90;;;8.80;99.90;;;;;;5112097;28;20085;-53
2023/03/01 11:19:01;;;;;;;74.15;37.58;;;9.00;99.90;;;;;;5112214;28;20024;-53
2023/03/01 11:21:30;;;;;;;68.38;36.10;;;9.10;99.90;;;;;;5112164;28;20023;-54
2023/03/01 11:23:59;;;;;;;72.55;35.33;;;9.40;99.90;;;;;;5112135;28;20118;-53
2023/03/01 11:26:26;;;;;;;70.20;35.60;;;9.00;99.90;;;;;;5112188;28;20023;-53
2023/03/01 11:28:58;;;;;;;64.80;34.88;;;9.30;99.90;;;;;;5114218;28;20107;-53
2023/03/01 11:31:25;;;;;;;66.53;36.10;;;9.60;99.90;;;;;;5130316;28;20552;-54
2023/03/01 11:33:57;;;;;;;65.88;33.47;;;;;;;;;;5133523;27;20107;-53
2023/03/01 11:36:23;;;;;;;;;;;;;;;;;;5133727;27;20027;-52
2023/03/01 11:38:49;;;;;;;54.17;30.25;;;9.90;99.90;;;;;;5135454;27;19960;-53
2023/03/01 11:41:23;;;;;;;52.13;33.13;;;9.70;99.90;;;;;;5135379;27;20106;-58
2023/03/01 11:43:52;;;;;;;53.25;29.98;;;9.80;99.90;;;;;;5135350;27;20034;-53
2023/03/01 11:46:32;;;;;;;41.50;24.65;;;10.00;99.90;;;;;;5132601;27;20080;-56
2023/03/01 11:49:10;;;;;;;48.28;29.30;;;9.30;99.90;;;;;;5132850;27;20027;-56
2023/03/01 11:51:42;;;;;;;43.08;25.77;;;;;;;;;;5135255;27;20486;-57
2023/03/01 11:54:08;;;;;;;;;;;;;;;;;;5135715;27;20061;-51
2023/03/01 11:56:37;;;;;;;45.83;25.92;;;;;;;;;;5132674;27;20367;-51
2023/03/01 11:59:18;;;;;;;43.00;24.80;;;9.00;99.90;;;;;;5134900;27;20031;-52
2023/03/01 12:01:47;;;;;;;49.85;30.15;;;8.90;99.90;;;;;;5114120;27;20043;-52
2023/03/01 12:04:41;;;;;;;48.97;29.70;;;9.10;99.90;;;;;;5134885;27;20076;-53
2023/03/01 12:07:28;;;;;;;60.10;36.78;;;8.80;99.90;;;;;;5106546;27;20452;-51
2023/03/01 12:10:21;;;;;;;70.40;41.17;;;9.00;99.90;;;;;;5134022;27;20027;-53
2023/03/01 12:12:47;;;;;;;49.80;30.58;;;9.20;99.90;;;;;;5133034;27;20540;-53
2023/03/01 12:15:38;;;;;;;47.22;30.15;;;9.10;99.90;;;;;;5134674;27;20023;-53
2023/03/01 12:18:13;;;;;;;53.70;32.47;;;9.00;99.90;;;;;;5132809;27;20114;-51
2023/03/01 12:20:52;;;;;;;49.97;31.27;;;;;;;;;;5131880;27;20027;-49
2023/03/01 12:23:37;;;;;;;41.83;26.10;;;;;;;;;;5134458;27;20038;-54
2023/03/01 12:26:23;;;;;;;55.13;31.45;;;9.70;99.90;;;;;;5132254;27;19923;-52
2023/03/01 12:28:54;;;;;;;43.35;26.77;;;;;;;;;;5114822;27;20515;-50
2023/03/01 12:31:38;;;;;;;46.13;28.90;;;;;;;;;;5135520;27;20027;-50
2023/03/01 12:34:13;;;;;;;42.00;25.55;;;;;;;;;;5134889;27;20038;-50
2023/03/01 12:36:49;;;;;;;39.45;23.10;;;;;;;;;;5135012;27;20031;-50
2023/03/01 12:39:34;;;;;;;40.30;24.60;;;;;;;;;;5133176;27;20046;-50
2023/03/01 12:42:14;;;;;;;40.97;25.38;;;9.60;99.90;;;;;;5133111;27;20031;-50
2023/03/01 12:45:07;;;;;;;43.78;25.13;;;9.80;99.90;;;;;;5134918;27;20035;-50
2023/03/01 12:47:44;;;;;;;47.15;27.90;;;;;;;;;;5132834;27;20072;-50
2023/03/01 12:50:20;;;;;;;48.63;29.95;;;10.70;99.90;;;;;;5135017;27;20466;-50
2023/03/01 12:52:55;;;;;;;44.40;29.00;;;10.70;99.90;;;;;;5132795;27;20118;-50
2023/03/01 12:55:34;;;;;;;44.85;28.05;;;10.50;99.90;;;;;;5134931;27;20141;-50
2023/03/01 12:58:37;;;;;;;44.47;27.15;;;10.50;99.90;;;;;;5134854;27;20023;-50
2023/03/01 13:01:06;;;;;;;43.10;25.38;;;10.60;99.90;;;;;;5132462;27;20051;-50